Terminal Aerodrome Forecast
Issued by NWS

Home | Current Version | Previous Version | Text Only | Print | Product List | Glossary On
Versions: 1 2 3 4 5 6 7 8 9 10 11 12 13
000
FTUS46 KLOX 271123
TAFLGB
TAF
KLGB 271123Z 2712/2812 VRB03KT P6SM SCT200
     FM272000 19008KT P6SM BKN200
     FM280000 29008KT P6SM BKN200
     FM280400 VRB03KT P6SM BKN200
     FM280900 VRB03KT 5SM BR BKN200=

USA.gov is the U.S. government's official web portal to all federal, state and local government web resources and services.